Time;durP1;ratioP1;P1;durP2;ratioP2;P2;SDS_P1;SDS_P2;PMS_P1;PMS_P2;Temp;Humidity;BMP_temperature;BMP_pressure;BME280_temperature;BME280_humidity;BME280_pressure;Samples;Min_cycle;Max_cycle;Signal;HPM_P1;HPM_P2
2021/05/14 00:01:18;;;;;;;4.22;2.75;;;;;;;12.03;56.81;99435.88;8833362;32;20541;-71
2021/05/14 00:06:21;;;;;;;6.15;2.78;;;;;;;11.98;56.58;99436.34;8833388;32;20146;-71
2021/05/14 00:11:23;;;;;;;3.78;2.50;;;;;;;11.87;56.59;99437.41;8834364;32;20186;-71
2021/05/14 00:16:27;;;;;;;6.85;2.70;;;;;;;11.63;57.47;99439.94;8833224;32;20184;-71
2021/05/14 00:21:31;;;;;;;3.95;2.72;;;;;;;11.17;59.44;99439.13;8833472;32;20778;-71
2021/05/14 00:26:34;;;;;;;5.00;2.58;;;;;;;11.01;59.87;99437.91;8832966;32;20558;-71
2021/05/14 00:31:37;;;;;;;4.60;2.72;;;;;;;11.05;60.13;99439.31;8833623;32;20284;-71
2021/05/14 00:36:40;;;;;;;3.95;2.95;;;;;;;10.98;60.25;99440.06;8831382;32;20195;-71
2021/05/14 00:41:42;;;;;;;3.97;2.65;;;;;;;10.91;60.63;99433.56;8832623;32;20222;-71
2021/05/14 00:46:46;;;;;;;6.40;3.28;;;;;;;10.79;61.14;99428.41;8833319;32;20178;-70
2021/05/14 00:51:49;;;;;;;6.90;3.20;;;;;;;10.85;61.00;99432.34;8833301;32;20193;-70
2021/05/14 00:56:52;;;;;;;8.07;3.53;;;;;;;10.71;61.41;99425.63;8833103;32;20851;-70
2021/05/14 01:01:56;;;;;;;5.03;3.13;;;;;;;10.81;61.30;99428.28;8832724;32;20876;-70
2021/05/14 01:06:59;;;;;;;5.63;3.15;;;;;;;10.81;60.79;99429.09;8832787;32;20588;-73
2021/05/14 01:12:02;;;;;;;9.50;3.30;;;;;;;10.73;60.84;99430.84;8831777;32;20708;-71
2021/05/14 01:17:06;;;;;;;4.43;3.20;;;;;;;10.63;61.36;99427.34;8832287;32;20658;-73
2021/05/14 01:22:10;;;;;;;4.53;3.40;;;;;;;10.48;62.10;99429.69;8831153;32;20146;-70
2021/05/14 01:27:13;;;;;;;5.88;3.80;;;;;;;10.50;62.01;99436.56;8832519;32;20229;-71
2021/05/14 01:32:16;;;;;;;6.20;3.65;;;;;;;10.43;62.48;99442.69;8830961;32;20181;-73
2021/05/14 01:37:20;;;;;;;6.88;3.85;;;;;;;10.36;63.04;99431.69;8830870;32;20207;-73
2021/05/14 01:42:22;;;;;;;4.82;3.78;;;;;;;10.59;62.80;99426.81;8831987;32;20216;-73
2021/05/14 01:47:25;;;;;;;8.50;3.53;;;;;;;10.69;62.90;99429.44;8831860;32;20691;-70
2021/05/14 01:52:28;;;;;;;5.97;4.00;;;;;;;10.71;63.28;99427.47;8831542;32;20477;-73
2021/05/14 01:57:31;;;;;;;5.53;3.35;;;;;;;10.73;63.34;99429.00;8831711;32;20151;-71
2021/05/14 02:02:34;;;;;;;6.10;4.03;;;;;;;10.68;63.46;99430.44;8831528;32;20186;-70
2021/05/14 02:07:38;;;;;;;7.70;4.38;;;;;;;10.41;64.13;99437.47;8832118;32;20177;-73
2021/05/14 02:12:41;;;;;;;5.40;3.78;;;;;;;10.29;64.42;99428.75;8830953;32;20182;-73
2021/05/14 02:17:44;;;;;;;6.82;4.35;;;;;;;10.34;64.63;99421.09;8831191;32;20409;-73
2021/05/14 02:22:48;;;;;;;6.28;4.15;;;;;;;10.42;64.81;99423.03;8833082;32;20824;-73
2021/05/14 02:27:50;;;;;;;9.88;4.68;;;;;;;10.50;64.64;99419.63;8836103;32;20193;-71
2021/05/14 02:32:53;;;;;;;9.52;5.93;;;;;;;10.44;64.67;99421.06;8835744;32;20648;-73
2021/05/14 02:37:57;;;;;;;8.85;5.30;;;;;;;10.48;65.06;99416.25;8836099;32;20468;-73
2021/05/14 02:43:00;;;;;;;10.23;5.18;;;;;;;10.29;65.71;99428.75;8833781;32;20190;-71
2021/05/14 02:48:03;;;;;;;12.20;6.38;;;;;;;9.99;66.63;99426.28;8836538;32;20552;-71
2021/05/14 02:53:07;;;;;;;10.40;6.72;;;;;;;9.96;67.43;99432.78;8836302;32;20463;-71
2021/05/14 02:58:10;;;;;;;11.25;6.47;;;;;;;9.88;67.75;99421.91;8834811;32;20192;-71
2021/05/14 03:03:12;;;;;;;10.70;5.90;;;;;;;9.79;68.30;99426.28;8835128;32;20256;-71
2021/05/14 03:08:16;;;;;;;12.05;6.70;;;;;;;9.66;68.81;99431.91;8858790;32;20170;-71
2021/05/14 03:13:19;;;;;;;13.07;6.93;;;;;;;9.57;69.40;99429.22;8834211;32;20178;-71
2021/05/14 03:18:21;;;;;;;12.98;7.00;;;;;;;9.68;69.31;99439.81;8835002;32;20190;-71
2021/05/14 03:23:25;;;;;;;14.32;7.40;;;;;;;9.75;69.14;99429.38;8835118;32;20174;-71
2021/05/14 03:28:28;;;;;;;16.10;7.95;;;;;;;9.79;69.04;99431.63;8834650;32;20208;-71
2021/05/14 03:33:30;;;;;;;15.30;8.23;;;;;;;9.70;69.33;99440.53;8834030;32;20178;-72
2021/05/14 03:38:35;;;;;;;15.43;8.27;;;;;;;9.67;69.80;99438.13;8834665;32;20165;-71
2021/05/14 03:43:37;;;;;;;14.10;7.75;;;;;;;9.61;70.07;99436.84;8834245;32;20285;-71
2021/05/14 03:48:40;;;;;;;13.38;7.78;;;;;;;9.56;70.54;99444.47;8834110;32;20130;-71
2021/05/14 03:53:43;;;;;;;19.15;8.73;;;;;;;9.49;70.94;99440.69;8833968;32;20185;-71
2021/05/14 03:58:46;;;;;;;15.82;9.25;;;;;;;9.53;70.95;99443.91;8832679;32;20186;-71
2021/05/14 04:03:50;;;;;;;18.65;9.68;;;;;;;9.69;70.84;99442.38;8835629;32;20189;-71
2021/05/14 04:08:53;;;;;;;16.50;8.75;;;;;;;9.66;70.41;99436.44;8833872;32;20193;-72
2021/05/14 04:19:16;;;;;;;16.33;8.80;;;;;;;9.53;71.30;99436.72;8833775;32;20194;-71
2021/05/14 04:24:21;;;;;;;17.00;9.40;;;;;;;9.49;71.55;99446.88;8832927;32;20189;-71
2021/05/14 04:29:25;;;;;;;19.48;9.90;;;;;;;9.55;71.67;99442.78;8833181;32;20191;-71
2021/05/14 04:34:28;;;;;;;19.25;9.32;;;;;;;9.78;71.31;99446.03;8833765;32;20465;-71
2021/05/14 04:39:38;;;;;;;20.90;10.73;;;;;;;10.01;70.72;99448.44;8833867;32;21056;-71
2021/05/14 04:44:41;;;;;;;23.75;12.10;;;;;;;10.23;69.56;99453.50;8833317;32;20425;-72
2021/05/14 04:49:43;;;;;;;23.85;11.88;;;;;;;10.30;69.13;99445.69;8833742;32;20190;-71
2021/05/14 04:54:47;;;;;;;19.88;11.10;;;;;;;10.50;69.06;99451.84;8833833;32;20186;-71
2021/05/14 04:59:50;;;;;;;19.50;11.02;;;;;;;10.73;68.81;99453.19;8833151;32;20266;-71
2021/05/14 05:04:58;;;;;;;22.02;10.90;;;;;;;10.66;68.16;99445.84;8833067;32;21224;-71
2021/05/14 05:10:01;;;;;;;21.42;10.68;;;;;;;10.73;68.37;99458.56;8833608;32;20200;-71
2021/05/14 05:15:06;;;;;;;21.35;11.13;;;;;;;11.01;67.97;99456.72;8832460;32;20134;-71
2021/05/14 05:20:10;;;;;;;22.63;11.20;;;;;;;11.13;67.11;99465.44;8832852;32;20233;-71
2021/05/14 05:25:15;;;;;;;22.98;11.80;;;;;;;10.92;67.24;99467.53;8833708;32;20151;-71
2021/05/14 05:30:20;;;;;;;20.65;12.15;;;;;;;10.93;67.75;99471.88;8832260;32;20194;-71
2021/05/14 05:35:23;;;;;;;21.70;11.48;;;;;;;11.30;67.46;99474.56;8832586;32;20185;-71
2021/05/14 05:40:26;;;;;;;30.23;13.88;;;;;;;11.57;66.44;99481.69;8832713;32;20189;-71
2021/05/14 05:45:29;;;;;;;25.95;14.45;;;;;;;11.59;65.97;99481.56;8832026;32;20995;-71
2021/05/14 05:50:31;;;;;;;30.40;14.73;;;;;;;11.54;65.91;99481.19;8832906;32;20550;-71
2021/05/14 05:55:35;;;;;;;29.52;16.30;;;;;;;11.75;65.48;99483.56;8834163;32;20264;-71
2021/05/14 06:00:38;;;;;;;35.03;17.42;;;;;;;11.84;65.74;99488.03;8837424;32;20186;-71
2021/05/14 06:05:41;;;;;;;32.75;17.15;;;;;;;12.48;64.17;99494.09;8837178;32;20285;-71
2021/05/14 06:10:49;;;;;;;28.55;15.50;;;;;;;12.59;63.15;99492.00;8837035;32;20183;-71
2021/05/14 06:15:53;;;;;;;28.55;15.02;;;;;;;12.64;63.19;99496.06;8860534;32;20978;-71
2021/05/14 06:20:55;;;;;;;28.48;16.38;;;;;;;11.92;64.97;99501.56;8835225;32;20178;-71
2021/05/14 06:25:59;;;;;;;30.52;17.10;;;;;;;12.22;64.84;99494.06;8836926;32;20225;-71
2021/05/14 06:31:02;;;;;;;28.50;16.07;;;;;;;12.25;64.24;99499.97;8846586;32;20568;-71
2021/05/14 06:36:06;;;;;;;35.10;17.02;;;;;;;12.05;65.63;99496.63;8835239;32;20189;-71
2021/05/14 06:41:09;;;;;;;31.63;17.13;;;;;;;12.08;65.35;99512.47;8876310;32;20196;-71
2021/05/14 06:46:12;;;;;;;28.40;15.55;;;;;;;12.16;66.13;99512.53;8895782;32;20451;-71
2021/05/14 06:51:14;;;;;;;16.50;9.50;;;;;;;12.59;64.96;99515.41;8896773;32;20196;-71
2021/05/14 06:56:18;;;;;;;26.67;15.57;;;;;;;13.42;62.91;99517.53;8896251;32;20192;-71
2021/05/14 07:01:21;;;;;;;20.45;11.75;;;;;;;13.73;61.98;99511.53;8896492;32;21844;-71
2021/05/14 07:06:24;;;;;;;26.95;15.40;;;;;;;13.25;62.60;99514.72;8895079;32;20181;-70
2021/05/14 07:11:28;;;;;;;27.23;15.35;;;;;;;13.19;63.45;99526.19;8895626;32;21005;-71
2021/05/14 07:16:31;;;;;;;24.50;15.32;;;;;;;12.62;63.00;99527.72;8895619;32;20280;-70
2021/05/14 07:21:34;;;;;;;25.02;15.07;;;;;;;12.87;63.35;99529.56;8896159;32;20216;-70
2021/05/14 07:26:37;;;;;;;23.42;14.23;;;;;;;12.65;64.50;99533.63;8895545;32;20234;-70
2021/05/14 07:31:40;;;;;;;22.88;13.55;;;;;;;12.28;64.55;99540.06;8870307;32;20189;-70
2021/05/14 07:36:44;;;;;;;25.92;13.75;;;;;;;12.36;64.88;99533.91;8896049;32;20912;-70
2021/05/14 07:41:48;;;;;;;19.17;10.95;;;;;;;12.10;63.82;99545.47;8895865;32;20200;-70
2021/05/14 07:46:51;;;;;;;21.15;11.25;;;;;;;12.35;62.65;99548.41;8895293;32;20181;-70
2021/05/14 07:51:54;;;;;;;20.40;10.98;;;;;;;12.51;62.10;99553.91;8895034;32;20150;-70
2021/05/14 07:56:58;;;;;;;23.98;11.05;;;;;;;12.31;62.59;99552.38;8894175;32;20185;-70
2021/05/14 08:02:01;;;;;;;19.02;10.68;;;;;;;12.31;63.20;99557.78;8895356;32;21431;-70
2021/05/14 08:07:03;;;;;;;18.50;10.73;;;;;;;12.58;63.11;99563.03;8894834;32;20185;-70
2021/05/14 08:12:09;;;;;;;19.20;11.27;;;;;;;12.25;65.06;99564.59;8870134;32;20159;-71
2021/05/14 08:17:11;;;;;;;19.90;12.05;;;;;;;12.22;65.45;99570.28;8894753;32;20783;-70
2021/05/14 08:22:14;;;;;;;21.35;12.90;;;;;;;12.44;65.34;99573.53;8894629;32;20852;-70
2021/05/14 08:27:18;;;;;;;22.40;13.60;;;;;;;12.08;66.92;99568.16;8894088;32;20146;-71
2021/05/14 08:32:20;;;;;;;20.67;13.50;;;;;;;12.15;68.49;99567.38;8894856;32;20188;-70
2021/05/14 08:37:23;;;;;;;21.38;14.00;;;;;;;12.08;68.99;99574.38;8893863;32;20241;-70
2021/05/14 08:42:28;;;;;;;24.05;15.02;;;;;;;12.06;69.39;99572.84;8894506;32;20189;-70
2021/05/14 08:47:31;;;;;;;26.48;14.90;;;;;;;12.00;69.62;99584.22;8893834;32;20146;-71
2021/05/14 08:52:36;;;;;;;25.40;16.60;;;;;;;11.58;70.36;99576.72;8894281;32;20184;-70
2021/05/14 08:57:40;;;;;;;25.35;15.48;;;;;;;11.80;71.33;99581.66;8893999;32;20212;-71
2021/05/14 09:02:43;;;;;;;24.58;13.38;;;;;;;11.68;69.11;99593.63;8853078;32;21318;-70
2021/05/14 09:07:45;;;;;;;22.95;13.95;;;;;;;11.71;70.98;99587.94;8892825;32;20189;-70
2021/05/14 09:12:52;;;;;;;25.08;14.43;;;;;;;11.39;71.79;99591.09;8892320;32;20532;-72
2021/05/14 09:18:07;;;;;;;23.23;14.10;;;;;;;11.68;71.09;99599.88;8891391;32;20122;-72
2021/05/14 09:23:40;;;;;;;27.00;15.02;;;;;;;11.53;73.26;99595.13;8891148;32;21621;-72
2021/05/14 09:28:47;;;;;;;27.52;15.20;;;;;;;11.35;75.06;99603.13;8891153;32;20455;-72
2021/05/14 09:33:51;;;;;;;26.83;14.82;;;;;;;10.97;76.21;99599.56;8896916;32;20181;-73
2021/05/14 09:39:00;;;;;;;25.80;15.77;;;;;;;11.04;75.96;99600.69;8896500;32;20200;-73
2021/05/14 09:44:07;;;;;;;26.77;14.65;;;;;;;10.61;76.28;99604.72;8897210;32;20157;-72
2021/05/14 09:49:12;;;;;;;27.52;15.00;;;;;;;10.67;76.72;99611.38;8898006;32;20172;-72
2021/05/14 09:54:24;;;;;;;27.65;15.85;;;;;;;10.70;76.55;99609.25;8897527;32;20149;-72
2021/05/14 09:59:30;;;;;;;26.00;14.05;;;;;;;11.10;75.49;99604.63;8897977;32;21656;-72
2021/05/14 10:04:36;;;;;;;25.08;13.30;;;;;;;10.99;75.98;99602.97;8899008;32;20185;-72
2021/05/14 10:09:40;;;;;;;23.88;13.70;;;;;;;10.54;77.00;99611.69;8899119;32;20288;-72
2021/05/14 10:14:45;;;;;;;25.35;15.20;;;;;;;10.99;77.60;99609.16;8897262;32;20280;-71
2021/05/14 10:19:49;;;;;;;23.40;14.40;;;;;;;11.09;76.95;99606.47;8883671;32;20196;-72
2021/05/14 10:24:54;;;;;;;22.95;13.93;;;;;;;10.81;76.60;99614.47;8885174;32;20193;-72
2021/05/14 10:30:00;;;;;;;20.65;12.98;;;;;;;10.73;77.71;99613.50;8897868;32;20189;-71
2021/05/14 10:35:04;;;;;;;18.38;11.23;;;;;;;10.55;77.12;99616.06;8896185;32;20821;-71
2021/05/14 10:40:44;;;;;;;21.58;12.05;;;;;;;10.97;75.66;99613.00;8871233;32;20662;-72
2021/05/14 10:45:48;;;;;;;20.50;11.93;;;;;;;11.10;75.26;99610.00;8897365;32;20185;-71
2021/05/14 10:50:53;;;;;;;21.27;12.32;;;;;;;11.02;75.85;99614.25;8896930;32;20145;-71
2021/05/14 10:56:49;;;;;;;17.92;10.90;;;;;;;11.95;74.40;99601.66;8870850;32;20614;-72
2021/05/14 11:01:51;;;;;;;18.45;11.38;;;;;;;12.77;71.58;99605.09;8896231;32;20166;-72
2021/05/14 11:06:55;;;;;;;18.02;10.98;;;;;;;12.36;70.71;99599.38;8896402;32;20846;-72
2021/05/14 11:12:02;;;;;;;19.08;11.30;;;;;;;12.42;71.34;99607.84;8870730;32;20222;-72
2021/05/14 11:17:09;;;;;;;18.20;9.75;;;;;;;12.37;71.19;99600.25;8895589;32;20737;-71
2021/05/14 11:22:14;;;;;;;16.05;9.82;;;;;;;12.35;70.28;99604.94;8896164;32;20165;-70
2021/05/14 11:27:24;;;;;;;14.00;9.55;;;;;;;12.02;70.24;99612.69;8888180;32;20229;-69
2021/05/14 11:32:33;;;;;;;15.50;9.98;;;;;;;12.47;70.55;99601.00;8893304;32;20181;-70
2021/05/14 11:37:38;;;;;;;13.02;8.65;;;;;;;13.05;69.70;99604.94;8894976;32;20234;-70
2021/05/14 11:42:46;;;;;;;11.90;8.25;;;;;;;13.19;65.58;99609.78;8895005;32;20177;-70
2021/05/14 11:47:52;;;;;;;13.77;8.40;;;;;;;13.38;65.84;99616.78;8895584;32;20922;-70
2021/05/14 11:52:56;;;;;;;11.23;7.72;;;;;;;13.68;61.50;99619.94;8894390;32;20589;-69
2021/05/14 11:58:01;;;;;;;12.30;7.97;;;;;;;14.65;62.06;99610.38;8894549;32;20165;-70
2021/05/14 12:03:06;;;;;;;11.13;8.23;;;;;;;15.88;58.28;99604.63;8894587;32;20189;-70
2021/05/14 12:08:11;;;;;;;11.02;7.93;;;;;;;15.39;57.18;99602.16;8894915;32;20150;-69
2021/05/14 12:13:16;;;;;;;12.13;7.65;;;;;;;16.04;55.36;99596.38;8894088;32;20434;-69
2021/05/14 12:18:19;;;;;;;12.48;8.57;;;;;;;16.69;53.64;99595.09;8853107;32;20233;-69
2021/05/14 12:23:24;;;;;;;10.80;7.97;;;;;;;16.99;52.79;99595.13;8892965;32;20353;-70
2021/05/14 12:28:38;;;;;;;11.32;8.23;;;;;;;15.74;54.93;99592.66;8893314;32;20763;-70
2021/05/14 12:33:49;;;;;;;13.05;8.70;;;;;;;16.21;55.93;99586.31;8894152;32;20748;-70
2021/05/14 12:38:54;;;;;;;11.55;8.07;;;;;;;16.87;52.45;99583.91;8893972;32;20188;-70
2021/05/14 12:44:14;;;;;;;9.32;7.15;;;;;;;16.62;50.88;99577.88;8893320;32;20901;-71
2021/05/14 12:49:19;;;;;;;8.57;6.88;;;;;;;17.31;49.75;99574.97;8893451;32;20283;-71
2021/05/14 12:54:22;;;;;;;9.43;6.47;;;;;;;17.23;50.82;99584.06;8853816;32;20350;-71
2021/05/14 12:59:49;;;;;;;9.73;6.57;;;;;;;18.39;48.77;99580.63;8854211;32;20330;-71
2021/05/14 13:05:01;;;;;;;9.45;6.22;;;;;;;19.22;45.95;99576.25;8892642;32;20578;-70
2021/05/14 13:10:07;;;;;;;7.80;6.13;;;;;;;16.48;49.20;99584.06;8892718;32;20176;-70
2021/05/14 13:15:12;;;;;;;8.85;6.38;;;;;;;16.87;48.31;99580.34;8892674;32;20141;-70
2021/05/14 13:20:15;;;;;;;7.35;4.97;;;;;;;17.63;46.38;99591.88;8892346;32;20213;-69
2021/05/14 13:25:18;;;;;;;7.80;5.88;;;;;;;18.62;44.29;99578.53;8891457;32;20642;-69
2021/05/14 13:30:22;;;;;;;9.88;6.25;;;;;;;18.12;45.72;99591.22;8892033;32;20181;-72
2021/05/14 13:35:25;;;;;;;8.35;5.72;;;;;;;19.04;42.70;99582.25;8863866;32;20182;-71
2021/05/14 13:40:27;;;;;;;8.77;6.13;;;;;;;17.75;45.16;99589.53;8880948;32;20184;-72
2021/05/14 13:45:31;;;;;;;6.60;5.57;;;;;;;20.01;44.38;99583.97;8890308;32;20146;-72
2021/05/14 13:50:33;;;;;;;7.22;6.07;;;;;;;21.32;41.33;99582.59;8891833;32;20678;-72
2021/05/14 13:55:36;;;;;;;7.10;5.72;;;;;;;20.76;40.54;99564.78;8892955;32;20192;-72
2021/05/14 14:00:40;;;;;;;9.27;6.28;;;;;;;19.41;42.36;99572.81;8892105;32;20177;-72
2021/05/14 14:05:43;;;;;;;8.10;6.22;;;;;;;19.45;40.53;99563.22;8892411;32;20450;-72
2021/05/14 14:10:46;;;;;;;10.07;6.10;;;;;;;20.98;40.91;99560.78;8892496;32;20235;-72
2021/05/14 14:15:49;;;;;;;7.30;6.05;;;;;;;21.19;36.34;99556.16;8893097;32;20533;-72
2021/05/14 14:20:52;;;;;;;6.07;4.78;;;;;;;21.59;38.64;99559.59;8897514;32;20188;-71
2021/05/14 14:25:55;;;;;;;7.50;4.75;;;;;;;22.54;37.05;99547.91;8871855;32;20162;-72
2021/05/14 14:30:58;;;;;;;7.80;5.43;;;;;;;22.16;36.18;99553.41;8897776;32;20471;-72
2021/05/14 14:36:03;;;;;;;8.30;5.53;;;;;;;21.94;36.81;99561.13;8896790;32;20599;-72
2021/05/14 14:41:05;;;;;;;7.28;6.13;;;;;;;22.59;36.47;99539.03;8896080;32;21440;-72
2021/05/14 14:46:09;;;;;;;7.25;5.05;;;;;;;21.74;37.95;99544.81;8896621;32;20249;-72
2021/05/14 14:51:13;;;;;;;7.85;5.95;;;;;;;20.79;40.22;99539.81;8896078;32;20145;-74
2021/05/14 14:56:16;;;;;;;6.30;5.55;;;;;;;19.85;41.30;99548.91;8896444;32;20442;-73
2021/05/14 15:01:19;;;;;;;7.57;5.90;;;;;;;20.28;38.78;99541.25;8895896;32;20654;-71
2021/05/14 15:06:22;;;;;;;7.82;5.47;;;;;;;18.87;43.18;99546.34;8866875;32;20150;-72
2021/05/14 15:11:25;;;;;;;10.80;6.03;;;;;;;19.32;42.72;99546.81;8896064;32;20146;-71
2021/05/14 15:16:28;;;;;;;7.82;5.82;;;;;;;21.76;37.32;99542.72;8895531;32;20189;-72
2021/05/14 15:21:32;;;;;;;7.18;5.60;;;;;;;20.29;38.74;99542.91;8895901;32;20605;-72
2021/05/14 15:26:35;;;;;;;6.35;5.28;;;;;;;20.45;38.55;99544.44;8893796;32;20177;-72
2021/05/14 15:31:39;;;;;;;6.70;5.60;;;;;;;21.13;36.09;99540.63;8894197;32;20193;-72
2021/05/14 15:36:42;;;;;;;8.98;6.43;;;;;;;19.79;38.90;99549.75;8893480;32;20431;-72
2021/05/14 15:41:46;;;;;;;6.25;4.95;;;;;;;21.07;37.06;99550.50;8894366;32;20227;-72
2021/05/14 15:46:49;;;;;;;6.10;4.57;;;;;;;21.28;36.12;99552.13;8895079;32;20191;-72
2021/05/14 15:51:52;;;;;;;6.57;5.15;;;;;;;18.03;41.60;99546.19;8895125;32;20498;-72
2021/05/14 15:56:55;;;;;;;5.22;4.55;;;;;;;18.40;41.28;99547.78;8895156;32;20537;-73
2021/05/14 16:02:16;;;;;;;5.00;4.47;;;;;;;19.70;39.82;99548.25;8894849;32;20212;-73
2021/05/14 16:07:19;;;;;;;5.57;4.93;;;;;;;20.79;38.22;99535.19;8895095;32;20173;-72
2021/05/14 16:12:22;;;;;;;5.85;4.43;;;;;;;19.89;38.16;99539.31;8894988;32;20826;-72
2021/05/14 16:17:27;;;;;;;5.60;4.60;;;;;;;21.40;36.15;99542.22;8869044;32;20200;-73
2021/05/14 16:22:29;;;;;;;5.43;4.32;;;;;;;21.81;36.50;99527.34;8895174;32;20776;-73
2021/05/14 16:27:32;;;;;;;6.93;4.78;;;;;;;20.18;36.87;99526.34;8897754;32;20177;-72
2021/05/14 16:32:36;;;;;;;5.97;4.95;;;;;;;20.51;36.81;99524.50;8900161;32;20150;-72
2021/05/14 16:37:39;;;;;;;6.15;4.57;;;;;;;21.92;35.23;99527.72;8896171;32;20195;-73
2021/05/14 16:42:42;;;;;;;5.25;4.68;;;;;;;23.01;33.00;99515.47;8893988;32;20241;-72
2021/05/14 16:47:47;;;;;;;6.20;4.10;;;;;;;25.05;31.73;99511.09;8894927;32;20217;-73
2021/05/14 16:52:50;;;;;;;6.60;5.28;;;;;;;25.48;28.82;99521.63;8895811;32;20560;-73
2021/05/14 16:57:53;;;;;;;6.00;5.00;;;;;;;26.70;27.64;99522.22;8894294;32;20145;-72
2021/05/14 17:02:59;;;;;;;6.47;4.85;;;;;;;28.02;25.99;99508.53;8893607;32;20130;-74
2021/05/14 17:08:01;;;;;;;4.85;4.35;;;;;;;26.57;28.53;99515.13;8891141;32;20192;-73
2021/05/14 17:13:04;;;;;;;5.18;4.30;;;;;;;26.89;27.76;99515.38;8894900;32;20177;-73
2021/05/14 17:18:08;;;;;;;5.22;4.40;;;;;;;27.24;26.30;99511.47;8893985;32;20949;-72
2021/05/14 17:23:10;;;;;;;7.57;4.82;;;;;;;27.54;26.19;99513.81;8893750;32;20181;-72
2021/05/14 17:28:13;;;;;;;5.20;4.45;;;;;;;24.58;29.48;99520.13;8893458;32;20834;-73
2021/05/14 17:33:17;;;;;;;6.28;4.43;;;;;;;23.47;31.50;99516.03;8893721;32;20189;-73
2021/05/14 17:38:20;;;;;;;6.30;5.00;;;;;;;20.20;36.20;99516.91;8893158;32;20847;-73
2021/05/14 17:43:28;;;;;;;5.78;3.88;;;;;;;19.93;37.92;99528.81;8893138;32;20226;-73
2021/05/14 17:48:31;;;;;;;5.07;4.25;;;;;;;21.36;34.80;99524.56;8893117;32;20177;-72
2021/05/14 17:53:35;;;;;;;5.03;4.35;;;;;;;20.34;36.06;99515.06;8897960;32;20618;-73
2021/05/14 17:58:38;;;;;;;6.15;4.25;;;;;;;19.23;38.55;99523.53;8897781;32;20177;-73
2021/05/14 18:03:42;;;;;;;5.47;3.92;;;;;;;18.31;40.35;99521.78;8896249;32;20674;-72
2021/05/14 18:08:46;;;;;;;5.95;4.45;;;;;;;17.55;42.86;99533.13;8896598;32;22273;-72
2021/05/14 18:13:49;;;;;;;6.00;4.82;;;;;;;16.70;45.91;99534.41;8892693;32;20674;-72
2021/05/14 18:19:04;;;;;;;5.53;4.78;;;;;;;16.14;47.79;99541.97;8869736;32;20211;-73
2021/05/14 18:24:08;;;;;;;6.80;5.22;;;;;;;15.72;49.25;99543.28;8895785;32;20454;-73
2021/05/14 18:29:11;;;;;;;6.03;4.93;;;;;;;15.41;50.25;99540.56;8896982;32;20164;-73
2021/05/14 18:34:14;;;;;;;6.68;4.35;;;;;;;15.16;51.19;99542.50;8897230;32;20185;-73
2021/05/14 18:39:17;;;;;;;6.78;4.82;;;;;;;14.90;52.27;99548.16;8898305;32;20157;-73
2021/05/14 18:44:20;;;;;;;7.10;4.78;;;;;;;14.72;52.97;99542.94;8897336;32;20174;-73
2021/05/14 18:49:24;;;;;;;6.30;5.22;;;;;;;14.54;53.49;99541.28;8897470;32;20184;-73
2021/05/14 18:54:27;;;;;;;6.50;4.85;;;;;;;14.34;54.29;99543.47;8897250;32;20314;-73
2021/05/14 18:59:29;;;;;;;8.23;4.80;;;;;;;14.21;55.06;99548.53;8897036;32;20185;-73
2021/05/14 19:04:34;;;;;;;6.97;4.93;;;;;;;13.92;56.35;99549.84;8870389;32;20767;-73
2021/05/14 19:09:37;;;;;;;7.35;5.05;;;;;;;13.65;57.12;99558.22;8897268;32;20138;-73
2021/05/14 19:14:40;;;;;;;7.47;5.80;;;;;;;13.44;57.94;99564.91;8870569;32;20188;-73
2021/05/14 19:19:44;;;;;;;7.97;5.30;;;;;;;13.25;57.85;99568.66;8834493;33;20147;-73
2021/05/14 19:24:48;;;;;;;7.57;4.75;;;;;;;13.19;58.95;99565.75;8835860;33;20654;-73
2021/05/14 19:35:24;;;;;;;7.57;5.32;;;;;;;13.01;59.35;99571.25;8836115;32;20440;-73
2021/05/14 19:46:09;;;;;;;8.30;5.85;;;;;;;12.57;59.70;99579.38;8895755;32;20241;-71
2021/05/14 19:51:13;;;;;;;9.27;6.13;;;;;;;12.58;59.46;99583.75;8895542;32;20595;-71
2021/05/14 19:56:15;;;;;;;8.82;5.88;;;;;;;12.63;59.33;99585.97;8894456;32;20180;-72
2021/05/14 20:01:18;;;;;;;9.57;6.88;;;;;;;12.49;59.76;99593.63;8883013;32;20304;-72
2021/05/14 20:06:23;;;;;;;10.88;6.93;;;;;;;12.39;60.38;99590.16;8895687;32;20693;-72
2021/05/14 20:11:26;;;;;;;10.68;7.05;;;;;;;12.42;60.84;99600.63;8895427;32;20181;-72
2021/05/14 20:16:29;;;;;;;9.23;7.13;;;;;;;12.48;60.95;99602.72;8894670;32;20442;-72
2021/05/14 20:21:32;;;;;;;10.93;7.93;;;;;;;12.49;61.00;99598.16;8894812;32;20279;-72
2021/05/14 20:26:35;;;;;;;12.07;8.48;;;;;;;12.30;61.63;99607.25;8894548;32;20237;-72
2021/05/14 20:31:55;;;;;;;14.05;8.80;;;;;;;12.02;62.66;99618.06;8868566;32;20299;-72
2021/05/14 20:37:01;;;;;;;12.20;8.18;;;;;;;11.65;64.20;99618.97;8893984;32;20148;-72
2021/05/14 20:42:05;;;;;;;12.15;8.23;;;;;;;11.75;63.96;99618.09;8894675;32;20593;-72
2021/05/14 20:47:08;;;;;;;14.65;8.75;;;;;;;11.80;63.84;99616.66;8892793;32;20559;-72
2021/05/14 20:52:11;;;;;;;11.73;8.15;;;;;;;11.99;63.37;99610.28;8881621;32;20839;-72
2021/05/14 20:57:34;;;;;;;14.73;9.98;;;;;;;12.09;62.94;99607.50;8868338;32;20630;-70
2021/05/14 21:02:36;;;;;;;11.50;8.60;;;;;;;12.22;62.73;99599.91;8881219;32;20193;-71
2021/05/14 21:07:40;;;;;;;12.93;9.38;;;;;;;12.22;62.89;99605.28;8893693;32;20674;-71
2021/05/14 21:12:43;;;;;;;14.32;9.23;;;;;;;12.02;63.24;99601.91;8893788;32;20207;-71
2021/05/14 21:17:47;;;;;;;15.32;9.55;;;;;;;11.99;63.41;99607.59;8894026;32;20145;-71
2021/05/14 21:22:51;;;;;;;12.18;8.18;;;;;;;11.86;63.91;99604.44;8893547;32;20878;-71
2021/05/14 21:27:53;;;;;;;14.13;9.60;;;;;;;11.82;63.98;99605.72;8896294;32;20180;-71
2021/05/14 21:32:56;;;;;;;15.00;10.20;;;;;;;11.62;64.75;99610.38;8897539;32;20146;-70
2021/05/14 21:38:00;;;;;;;15.63;9.73;;;;;;;11.52;64.84;99607.75;8871552;32;20240;-71
2021/05/14 21:43:01;;;;;;;15.15;10.40;;;;;;;11.45;65.24;99609.31;8898006;32;20682;-71
2021/05/14 21:48:04;;;;;;;15.52;10.50;;;;;;;11.48;65.16;99606.34;8896196;32;20257;-71
2021/05/14 21:53:06;;;;;;;15.25;9.88;;;;;;;11.55;65.13;99603.91;8897090;32;20182;-71
2021/05/14 21:58:08;;;;;;;15.20;10.13;;;;;;;11.39;65.49;99605.41;8897453;32;20142;-72
2021/05/14 22:03:09;;;;;;;16.27;10.85;;;;;;;11.15;66.48;99600.53;8896593;32;20168;-72
2021/05/14 22:08:12;;;;;;;15.75;10.75;;;;;;;11.24;66.69;99598.78;8864848;32;20165;-72
2021/05/14 22:13:15;;;;;;;20.85;11.70;;;;;;;11.44;66.35;99607.66;8897589;32;20181;-72
2021/05/14 22:18:17;;;;;;;18.15;10.82;;;;;;;11.49;65.93;99608.03;8894180;32;20408;-72
2021/05/14 22:23:19;;;;;;;19.70;12.45;;;;;;;11.35;66.03;99616.59;8895068;32;20234;-72
2021/05/14 22:28:20;;;;;;;18.42;11.90;;;;;;;10.66;68.46;99644.59;8871012;32;20417;-72
2021/05/14 22:33:22;;;;;;;20.40;12.77;;;;;;;10.79;68.45;99643.31;8896959;32;20234;-72
2021/05/14 22:38:24;;;;;;;19.25;12.63;;;;;;;10.93;68.00;99622.34;8896480;32;20517;-72
2021/05/14 22:43:26;;;;;;;19.00;12.82;;;;;;;10.88;68.12;99625.47;8896651;32;20142;-72
2021/05/14 22:48:27;;;;;;;20.30;11.85;;;;;;;10.94;67.78;99624.03;8896271;32;20267;-72
2021/05/14 22:53:30;;;;;;;19.45;11.93;;;;;;;11.06;67.60;99617.50;8896197;32;20142;-72
2021/05/14 22:58:31;;;;;;;19.73;11.52;;;;;;;11.18;67.46;99620.91;8869702;32;20195;-72
2021/05/14 23:03:33;;;;;;;20.98;12.98;;;;;;;11.20;67.28;99614.38;8870341;32;20130;-72
2021/05/14 23:08:35;;;;;;;18.65;11.40;;;;;;;11.07;67.35;99616.50;8895547;32;20696;-72
2021/05/14 23:13:37;;;;;;;17.83;11.43;;;;;;;10.92;68.05;99612.63;8870177;32;20471;-72
2021/05/14 23:18:38;;;;;;;18.80;12.20;;;;;;;10.81;68.04;99609.09;8895255;32;20181;-72
2021/05/14 23:23:41;;;;;;;20.80;13.00;;;;;;;11.04;67.96;99606.06;8895491;32;20436;-72
2021/05/14 23:28:42;;;;;;;19.15;12.25;;;;;;;11.09;67.75;99598.41;8895088;32;20224;-72
2021/05/14 23:33:44;;;;;;;18.30;11.73;;;;;;;11.04;67.78;99593.47;8895508;32;20423;-72
2021/05/14 23:38:46;;;;;;;18.73;12.45;;;;;;;11.14;67.34;99588.09;8894540;32;20187;-72
2021/05/14 23:43:48;;;;;;;18.95;11.77;;;;;;;11.17;67.42;99592.34;8894810;32;20449;-72
2021/05/14 23:48:49;;;;;;;20.90;12.13;;;;;;;11.04;67.60;99585.41;8894341;32;20345;-72
2021/05/14 23:53:51;;;;;;;18.10;11.90;;;;;;;10.97;67.98;99578.94;8895073;32;21004;-72